sensor_id;sensor_type;location;lat;lon;timestamp;pressure;altitude;pressure_sealevel;temperature;humidity
86204;BME280;76856;42.356;24.732;2024-03-02T00:00:08;98773.16;;;8.34;86.38
86204;BME280;76856;42.356;24.732;2024-03-02T00:05:07;98787.50;;;8.48;86.18
86204;BME280;76856;42.356;24.732;2024-03-02T00:07:33;98780.38;;;8.24;87.52
86204;BME280;76856;42.356;24.732;2024-03-02T00:09:59;98785.03;;;8.30;87.86
86204;BME280;76856;42.356;24.732;2024-03-02T00:12:24;98781.72;;;8.28;87.72
86204;BME280;76856;42.356;24.732;2024-03-02T00:14:51;98778.44;;;8.26;87.96
86204;BME280;76856;42.356;24.732;2024-03-02T00:17:26;98783.38;;;8.29;88.30
86204;BME280;76856;42.356;24.732;2024-03-02T00:19:51;98783.03;;;8.24;88.96
86204;BME280;76856;42.356;24.732;2024-03-02T00:22:18;98770.19;;;8.21;89.15
86204;BME280;76856;42.356;24.732;2024-03-02T00:24:43;98772.16;;;8.27;89.05
86204;BME280;76856;42.356;24.732;2024-03-02T00:27:13;98778.91;;;8.29;88.92
86204;BME280;76856;42.356;24.732;2024-03-02T00:29:40;98775.66;;;8.27;88.96
86204;BME280;76856;42.356;24.732;2024-03-02T00:32:12;98776.47;;;8.28;89.49
86204;BME280;76856;42.356;24.732;2024-03-02T00:34:39;98767.75;;;8.27;89.83
86204;BME280;76856;42.356;24.732;2024-03-02T00:37:05;98767.56;;;8.29;89.99
86204;BME280;76856;42.356;24.732;2024-03-02T00:39:30;98765.59;;;8.31;89.64
86204;BME280;76856;42.356;24.732;2024-03-02T00:41:56;98767.22;;;8.32;89.52
86204;BME280;76856;42.356;24.732;2024-03-02T00:44:25;98768.91;;;8.33;90.13
86204;BME280;76856;42.356;24.732;2024-03-02T00:46:55;98774.00;;;8.43;89.78
86204;BME280;76856;42.356;24.732;2024-03-02T00:49:23;98760.69;;;8.44;89.46
86204;BME280;76856;42.356;24.732;2024-03-02T00:51:50;98758.53;;;8.48;89.64
86204;BME280;76856;42.356;24.732;2024-03-02T00:54:21;98750.44;;;8.49;89.37
86204;BME280;76856;42.356;24.732;2024-03-02T00:56:50;98753.06;;;8.49;89.63
86204;BME280;76856;42.356;24.732;2024-03-02T00:59:16;98750.63;;;8.56;89.67
86204;BME280;76856;42.356;24.732;2024-03-02T01:01:41;98747.47;;;8.61;89.25
86204;BME280;76856;42.356;24.732;2024-03-02T01:04:08;98741.22;;;8.62;88.62
86204;BME280;76856;42.356;24.732;2024-03-02T01:06:35;98733.47;;;8.60;89.19
86204;BME280;76856;42.356;24.732;2024-03-02T01:09:00;98731.31;;;8.64;88.50
86204;BME280;76856;42.356;24.732;2024-03-02T01:11:26;98726.38;;;8.61;88.81
86204;BME280;76856;42.356;24.732;2024-03-02T01:13:52;98728.06;;;8.62;88.52
86204;BME280;76856;42.356;24.732;2024-03-02T01:16:17;98715.69;;;8.62;88.22
86204;BME280;76856;42.356;24.732;2024-03-02T01:18:43;98707.94;;;8.61;88.36
86204;BME280;76856;42.356;24.732;2024-03-02T01:21:09;98714.88;;;8.62;88.26
86204;BME280;76856;42.356;24.732;2024-03-02T01:23:34;98712.53;;;8.67;88.19
86204;BME280;76856;42.356;24.732;2024-03-02T01:26:00;98713.84;;;8.71;88.60
86204;BME280;76856;42.356;24.732;2024-03-02T01:28:26;98715.16;;;8.75;87.72
86204;BME280;76856;42.356;24.732;2024-03-02T01:30:51;98710.06;;;8.73;87.92
86204;BME280;76856;42.356;24.732;2024-03-02T01:33:17;98709.19;;;8.81;87.55
86204;BME280;76856;42.356;24.732;2024-03-02T01:35:43;98706.41;;;8.83;87.44
86204;BME280;76856;42.356;24.732;2024-03-02T01:38:09;98706.91;;;8.78;87.82
86204;BME280;76856;42.356;24.732;2024-03-02T01:40:36;98710.38;;;8.78;87.57
86204;BME280;76856;42.356;24.732;2024-03-02T01:43:01;98711.19;;;8.79;87.71
86204;BME280;76856;42.356;24.732;2024-03-02T01:45:28;98709.19;;;8.81;87.81
86204;BME280;76856;42.356;24.732;2024-03-02T01:47:54;98711.00;;;8.80;87.74
86204;BME280;76856;42.356;24.732;2024-03-02T01:50:31;98708.03;;;8.84;87.64
86204;BME280;76856;42.356;24.732;2024-03-02T01:52:57;98712.47;;;8.83;87.11
86204;BME280;76856;42.356;24.732;2024-03-02T01:55:23;98711.19;;;8.79;87.06
86204;BME280;76856;42.356;24.732;2024-03-02T01:57:49;98708.72;;;8.77;87.47
86204;BME280;76856;42.356;24.732;2024-03-02T02:00:21;98713.16;;;8.77;87.69
86204;BME280;76856;42.356;24.732;2024-03-02T02:02:50;98713.50;;;8.74;87.74
86204;BME280;76856;42.356;24.732;2024-03-02T02:05:17;98705.28;;;8.69;87.73
86204;BME280;76856;42.356;24.732;2024-03-02T02:07:43;98698.22;;;8.61;87.42
86204;BME280;76856;42.356;24.732;2024-03-02T02:10:10;98705.63;;;8.66;87.48
86204;BME280;76856;42.356;24.732;2024-03-02T02:12:36;98704.63;;;8.67;88.03
86204;BME280;76856;42.356;24.732;2024-03-02T02:15:02;98703.81;;;8.66;88.12
86204;BME280;76856;42.356;24.732;2024-03-02T02:17:28;98704.16;;;8.63;88.08
86204;BME280;76856;42.356;24.732;2024-03-02T02:19:53;98706.44;;;8.66;87.64
86204;BME280;76856;42.356;24.732;2024-03-02T02:22:19;98707.09;;;8.68;88.26
86204;BME280;76856;42.356;24.732;2024-03-02T02:24:45;98691.78;;;8.64;88.55
86204;BME280;76856;42.356;24.732;2024-03-02T02:27:11;98697.91;;;8.64;88.06
86204;BME280;76856;42.356;24.732;2024-03-02T02:29:40;98693.13;;;8.60;88.41
86204;BME280;76856;42.356;24.732;2024-03-02T02:32:06;98690.63;;;8.66;88.50
86204;BME280;76856;42.356;24.732;2024-03-02T02:34:31;98696.06;;;8.73;88.01
86204;BME280;76856;42.356;24.732;2024-03-02T02:36:57;98699.34;;;8.75;88.46
86204;BME280;76856;42.356;24.732;2024-03-02T02:39:23;98697.69;;;8.74;88.17
86204;BME280;76856;42.356;24.732;2024-03-02T02:41:49;98682.56;;;8.68;88.26
86204;BME280;76856;42.356;24.732;2024-03-02T02:44:15;98686.84;;;8.69;88.57
86204;BME280;76856;42.356;24.732;2024-03-02T02:46:41;98691.44;;;8.67;88.02
86204;BME280;76856;42.356;24.732;2024-03-02T02:49:06;98686.19;;;8.67;88.32
86204;BME280;76856;42.356;24.732;2024-03-02T02:51:32;98684.22;;;8.69;88.77
86204;BME280;76856;42.356;24.732;2024-03-02T02:53:58;98698.84;;;8.71;88.35
86204;BME280;76856;42.356;24.732;2024-03-02T02:56:23;98689.13;;;8.72;88.09
86204;BME280;76856;42.356;24.732;2024-03-02T02:58:49;98690.94;;;8.71;88.33
86204;BME280;76856;42.356;24.732;2024-03-02T03:01:16;98680.91;;;8.67;88.75
86204;BME280;76856;42.356;24.732;2024-03-02T03:03:44;98678.94;;;8.69;88.55
86204;BME280;76856;42.356;24.732;2024-03-02T03:06:11;98689.81;;;8.66;89.06
86204;BME280;76856;42.356;24.732;2024-03-02T03:08:37;98695.09;;;8.66;88.62
86204;BME280;76856;42.356;24.732;2024-03-02T03:11:03;98681.75;;;8.67;88.19
86204;BME280;76856;42.356;24.732;2024-03-02T03:13:29;98689.13;;;8.72;88.23
86204;BME280;76856;42.356;24.732;2024-03-02T03:15:55;98692.13;;;8.69;88.68
86204;BME280;76856;42.356;24.732;2024-03-02T03:18:20;98683.88;;;8.72;88.42
86204;BME280;76856;42.356;24.732;2024-03-02T03:20:46;98687.84;;;8.68;88.35
86204;BME280;76856;42.356;24.732;2024-03-02T03:23:12;98680.78;;;8.60;88.52
86204;BME280;76856;42.356;24.732;2024-03-02T03:25:41;98689.00;;;8.65;88.32
86204;BME280;76856;42.356;24.732;2024-03-02T03:28:07;98695.75;;;8.68;88.57
86204;BME280;76856;42.356;24.732;2024-03-02T03:30:37;98693.47;;;8.65;88.30
86204;BME280;76856;42.356;24.732;2024-03-02T03:33:03;98698.03;;;8.71;88.29
86204;BME280;76856;42.356;24.732;2024-03-02T03:35:29;98691.28;;;8.68;87.92
86204;BME280;76856;42.356;24.732;2024-03-02T03:37:55;98690.47;;;8.68;88.43
86204;BME280;76856;42.356;24.732;2024-03-02T03:40:20;98689.81;;;8.66;88.72
86204;BME280;76856;42.356;24.732;2024-03-02T03:42:46;98696.59;;;8.60;88.50
86204;BME280;76856;42.356;24.732;2024-03-02T03:45:11;98694.44;;;8.64;88.36
86204;BME280;76856;42.356;24.732;2024-03-02T03:47:37;98694.28;;;8.65;88.35
86204;BME280;76856;42.356;24.732;2024-03-02T03:50:03;98685.72;;;8.63;88.71
86204;BME280;76856;42.356;24.732;2024-03-02T03:52:32;98693.13;;;8.68;88.48
86204;BME280;76856;42.356;24.732;2024-03-02T03:54:57;98690.13;;;8.71;88.06
86204;BME280;76856;42.356;24.732;2024-03-02T03:57:23;98674.03;;;8.57;88.61
86204;BME280;76856;42.356;24.732;2024-03-02T03:59:49;98674.00;;;8.66;88.54
86204;BME280;76856;42.356;24.732;2024-03-02T04:02:14;98677.31;;;8.68;88.97
86204;BME280;76856;42.356;24.732;2024-03-02T04:04:40;98674.66;;;8.68;88.89
86204;BME280;76856;42.356;24.732;2024-03-02T04:07:05;98673.66;;;8.69;88.83
86204;BME280;76856;42.356;24.732;2024-03-02T04:09:31;98683.53;;;8.75;88.47
86204;BME280;76856;42.356;24.732;2024-03-02T04:11:57;98684.88;;;8.63;88.09
86204;BME280;76856;42.356;24.732;2024-03-02T04:14:22;98684.56;;;8.66;88.52
86204;BME280;76856;42.356;24.732;2024-03-02T04:16:48;98688.81;;;8.67;88.49
86204;BME280;76856;42.356;24.732;2024-03-02T04:19:13;98688.19;;;8.65;88.49
86204;BME280;76856;42.356;24.732;2024-03-02T04:21:39;98693.94;;;8.68;87.89
86204;BME280;76856;42.356;24.732;2024-03-02T04:24:05;98693.59;;;8.71;87.92
86204;BME280;76856;42.356;24.732;2024-03-02T04:26:30;98703.47;;;8.69;87.32
86204;BME280;76856;42.356;24.732;2024-03-02T04:28:56;98696.56;;;8.68;87.72
86204;BME280;76856;42.356;24.732;2024-03-02T04:31:21;98699.06;;;8.62;88.10
86204;BME280;76856;42.356;24.732;2024-03-02T04:33:47;98704.00;;;8.65;87.96
86204;BME280;76856;42.356;24.732;2024-03-02T04:36:12;98717.81;;;8.67;87.78
86204;BME280;76856;42.356;24.732;2024-03-02T04:38:38;98719.81;;;8.65;87.69
86204;BME280;76856;42.356;24.732;2024-03-02T04:41:05;98722.28;;;8.58;87.95
86204;BME280;76856;42.356;24.732;2024-03-02T04:43:34;98711.56;;;8.60;88.09
86204;BME280;76856;42.356;24.732;2024-03-02T04:46:00;98707.13;;;8.60;87.55
86204;BME280;76856;42.356;24.732;2024-03-02T04:48:26;98713.22;;;8.61;87.81
86204;BME280;76856;42.356;24.732;2024-03-02T04:50:51;98710.91;;;8.66;87.96
86204;BME280;76856;42.356;24.732;2024-03-02T04:53:17;98714.31;;;8.74;87.74
86204;BME280;76856;42.356;24.732;2024-03-02T04:55:43;98708.25;;;8.74;88.01
86204;BME280;76856;42.356;24.732;2024-03-02T04:58:08;98711.19;;;8.79;88.15
86204;BME280;76856;42.356;24.732;2024-03-02T05:00:34;98707.91;;;8.77;88.04
86204;BME280;76856;42.356;24.732;2024-03-02T05:03:00;98716.47;;;8.79;88.41
86204;BME280;76856;42.356;24.732;2024-03-02T05:05:26;98705.94;;;8.79;88.26
86204;BME280;76856;42.356;24.732;2024-03-02T05:07:52;98698.31;;;8.84;88.26
86204;BME280;76856;42.356;24.732;2024-03-02T05:10:18;98700.94;;;8.84;88.24
86204;BME280;76856;42.356;24.732;2024-03-02T05:12:43;98701.94;;;8.83;88.01
86204;BME280;76856;42.356;24.732;2024-03-02T05:15:13;98704.56;;;8.83;87.88
86204;BME280;76856;42.356;24.732;2024-03-02T05:17:40;98726.47;;;8.84;88.01
86204;BME280;76856;42.356;24.732;2024-03-02T05:20:06;98719.06;;;8.87;88.30
86204;BME280;76856;42.356;24.732;2024-03-02T05:22:36;98730.44;;;8.88;88.03
86204;BME280;76856;42.356;24.732;2024-03-02T05:25:03;98738.50;;;8.86;87.70
86204;BME280;76856;42.356;24.732;2024-03-02T05:27:28;98738.50;;;8.86;87.73
86204;BME280;76856;42.356;24.732;2024-03-02T05:29:54;98720.06;;;8.86;88.05
86204;BME280;76856;42.356;24.732;2024-03-02T05:32:20;98741.47;;;8.91;87.82
86204;BME280;76856;42.356;24.732;2024-03-02T05:34:45;98732.41;;;8.86;87.72
86204;BME280;76856;42.356;24.732;2024-03-02T05:37:11;98727.28;;;8.92;88.22
86204;BME280;76856;42.356;24.732;2024-03-02T05:39:37;98742.75;;;8.95;87.97
86204;BME280;76856;42.356;24.732;2024-03-02T05:42:03;98737.47;;;8.95;87.69
86204;BME280;76856;42.356;24.732;2024-03-02T05:44:29;98744.75;;;8.93;87.68
86204;BME280;76856;42.356;24.732;2024-03-02T05:46:55;98741.13;;;8.94;88.33
86204;BME280;76856;42.356;24.732;2024-03-02T05:49:20;98724.63;;;8.92;87.85
86204;BME280;76856;42.356;24.732;2024-03-02T05:51:46;98728.75;;;8.95;88.31
86204;BME280;76856;42.356;24.732;2024-03-02T05:54:12;98741.13;;;8.94;88.38
86204;BME280;76856;42.356;24.732;2024-03-02T05:56:37;98726.94;;;8.95;88.38
86204;BME280;76856;42.356;24.732;2024-03-02T05:59:03;98732.88;;;8.97;87.83
86204;BME280;76856;42.356;24.732;2024-03-02T06:01:47;98729.88;;;9.00;88.52
86204;BME280;76856;42.356;24.732;2024-03-02T06:04:16;98736.66;;;8.95;88.46
86204;BME280;76856;42.356;24.732;2024-03-02T06:06:41;98741.94;;;8.95;88.20
86204;BME280;76856;42.356;24.732;2024-03-02T06:09:07;98749.38;;;8.91;88.46
86204;BME280;76856;42.356;24.732;2024-03-02T06:11:34;98737.47;;;8.95;88.57
86204;BME280;76856;42.356;24.732;2024-03-02T06:13:59;98737.13;;;8.98;88.62
86204;BME280;76856;42.356;24.732;2024-03-02T06:16:25;98735.84;;;8.94;88.55
86204;BME280;76856;42.356;24.732;2024-03-02T06:18:50;98727.97;;;8.86;88.87
86204;BME280;76856;42.356;24.732;2024-03-02T06:21:16;98726.66;;;8.82;89.50
86204;BME280;76856;42.356;24.732;2024-03-02T06:23:43;98720.06;;;8.86;89.59
86204;BME280;76856;42.356;24.732;2024-03-02T06:26:09;98712.97;;;8.87;89.86
86204;BME280;76856;42.356;24.732;2024-03-02T06:28:35;98731.94;;;8.82;90.32
86204;BME280;76856;42.356;24.732;2024-03-02T06:31:01;98735.88;;;8.86;90.41
86204;BME280;76856;42.356;24.732;2024-03-02T06:33:27;98742.63;;;8.89;89.92
86204;BME280;76856;42.356;24.732;2024-03-02T06:35:54;98742.47;;;8.90;90.52
86204;BME280;76856;42.356;24.732;2024-03-02T06:38:19;98740.44;;;8.92;90.18
86204;BME280;76856;42.356;24.732;2024-03-02T06:40:45;98742.75;;;8.95;89.88
86204;BME280;76856;42.356;24.732;2024-03-02T06:43:11;98750.66;;;8.95;90.23
86204;BME280;76856;42.356;24.732;2024-03-02T06:45:36;98745.34;;;9.03;90.10
86204;BME280;76856;42.356;24.732;2024-03-02T06:48:02;98765.75;;;9.10;89.60
86204;BME280;76856;42.356;24.732;2024-03-02T06:50:30;98755.06;;;9.11;89.84
86204;BME280;76856;42.356;24.732;2024-03-02T06:52:56;98756.53;;;9.14;89.60
86204;BME280;76856;42.356;24.732;2024-03-02T06:55:22;98756.53;;;9.14;88.84
86204;BME280;76856;42.356;24.732;2024-03-02T06:57:50;98751.59;;;9.11;89.49
86204;BME280;76856;42.356;24.732;2024-03-02T07:00:16;98754.56;;;9.16;89.50
86204;BME280;76856;42.356;24.732;2024-03-02T07:02:44;98759.50;;;9.19;89.73
86204;BME280;76856;42.356;24.732;2024-03-02T07:05:10;98763.09;;;9.18;89.42
86204;BME280;76856;42.356;24.732;2024-03-02T07:07:36;98755.84;;;9.20;89.47
86204;BME280;76856;42.356;24.732;2024-03-02T07:10:06;98765.59;;;9.19;89.65
86204;BME280;76856;42.356;24.732;2024-03-02T07:12:33;98764.75;;;9.19;89.30
86204;BME280;76856;42.356;24.732;2024-03-02T07:14:58;98764.41;;;9.22;89.73
86204;BME280;76856;42.356;24.732;2024-03-02T07:17:30;98773.63;;;9.26;89.56
86204;BME280;76856;42.356;24.732;2024-03-02T07:19:57;98776.59;;;9.23;89.67
86204;BME280;76856;42.356;24.732;2024-03-02T07:22:23;98777.91;;;9.27;89.46
86204;BME280;76856;42.356;24.732;2024-03-02T07:24:49;98768.34;;;9.26;89.37
86204;BME280;76856;42.356;24.732;2024-03-02T07:27:16;98761.75;;;9.30;89.54
86204;BME280;76856;42.356;24.732;2024-03-02T07:29:42;98753.13;;;9.36;89.08
86204;BME280;76856;42.356;24.732;2024-03-02T07:32:08;98747.22;;;9.34;88.89
86204;BME280;76856;42.356;24.732;2024-03-02T07:34:34;98743.63;;;9.27;88.88
86204;BME280;76856;42.356;24.732;2024-03-02T07:37:00;98724.81;;;9.30;89.25
86204;BME280;76856;42.356;24.732;2024-03-02T07:39:26;98749.84;;;9.34;89.31
86204;BME280;76856;42.356;24.732;2024-03-02T07:41:52;98744.56;;;9.34;88.82
86204;BME280;76856;42.356;24.732;2024-03-02T07:44:18;98751.66;;;9.34;89.57
86204;BME280;76856;42.356;24.732;2024-03-02T07:46:48;98753.97;;;9.37;89.18
86204;BME280;76856;42.356;24.732;2024-03-02T07:49:17;98755.44;;;9.39;89.42
86204;BME280;76856;42.356;24.732;2024-03-02T07:51:43;98781.50;;;9.34;89.18
86204;BME280;76856;42.356;24.732;2024-03-02T07:54:08;98792.06;;;9.34;88.80
86204;BME280;76856;42.356;24.732;2024-03-02T07:56:34;98794.34;;;9.37;88.46
86204;BME280;76856;42.356;24.732;2024-03-02T07:59:01;98781.16;;;9.37;87.80
86204;BME280;76856;42.356;24.732;2024-03-02T08:01:28;98787.09;;;9.39;87.64
86204;BME280;76856;42.356;24.732;2024-03-02T08:03:56;98788.72;;;9.40;87.99
86204;BME280;76856;42.356;24.732;2024-03-02T08:06:26;98801.94;;;9.32;87.96
86204;BME280;76856;42.356;24.732;2024-03-02T08:08:58;98783.81;;;9.29;87.74
86204;BME280;76856;42.356;24.732;2024-03-02T08:11:24;98792.41;;;9.31;87.82
86204;BME280;76856;42.356;24.732;2024-03-02T08:13:50;98781.16;;;9.37;87.94
86204;BME280;76856;42.356;24.732;2024-03-02T08:16:17;98791.69;;;9.37;87.89
86204;BME280;76856;42.356;24.732;2024-03-02T08:18:48;98788.91;;;9.39;87.90
86204;BME280;76856;42.356;24.732;2024-03-02T08:21:14;98777.91;;;9.27;87.80
86204;BME280;76856;42.356;24.732;2024-03-02T08:23:41;98774.63;;;9.25;88.17
86204;BME280;76856;42.356;24.732;2024-03-02T08:26:08;98769.47;;;9.32;87.75
86204;BME280;76856;42.356;24.732;2024-03-02T08:28:34;98775.56;;;9.32;87.66
86204;BME280;76856;42.356;24.732;2024-03-02T08:31:00;98769.81;;;9.29;87.42
86204;BME280;76856;42.356;24.732;2024-03-02T08:33:26;98769.66;;;9.30;88.01
86204;BME280;76856;42.356;24.732;2024-03-02T08:35:52;98765.41;;;9.13;88.31
86204;BME280;76856;42.356;24.732;2024-03-02T08:38:17;98778.56;;;9.21;89.45
86204;BME280;76856;42.356;24.732;2024-03-02T08:40:43;98783.81;;;9.29;88.90
86204;BME280;76856;42.356;24.732;2024-03-02T08:43:09;98775.91;;;9.29;88.50
86204;BME280;76856;42.356;24.732;2024-03-02T08:45:35;98780.50;;;9.35;88.38
86204;BME280;76856;42.356;24.732;2024-03-02T08:48:01;98786.78;;;9.34;88.48
86204;BME280;76856;42.356;24.732;2024-03-02T08:50:26;98774.16;;;9.21;88.73
86204;BME280;76856;42.356;24.732;2024-03-02T08:52:52;98776.72;;;9.30;89.10
86204;BME280;76856;42.356;24.732;2024-03-02T08:55:17;98784.94;;;9.35;88.81
86204;BME280;76856;42.356;24.732;2024-03-02T08:57:43;98781.94;;;9.46;88.43
86204;BME280;76856;42.356;24.732;2024-03-02T09:00:09;98775.50;;;9.48;88.55
86204;BME280;76856;42.356;24.732;2024-03-02T09:02:35;98774.78;;;9.55;88.35
86204;BME280;76856;42.356;24.732;2024-03-02T09:05:01;98773.63;;;9.57;88.55
86204;BME280;76856;42.356;24.732;2024-03-02T09:07:27;98779.03;;;9.64;87.79
86204;BME280;76856;42.356;24.732;2024-03-02T09:09:52;98764.50;;;9.68;87.97
86204;BME280;76856;42.356;24.732;2024-03-02T09:12:18;98764.63;;;9.75;88.04
86204;BME280;76856;42.356;24.732;2024-03-02T09:14:45;98751.00;;;9.63;86.94
86204;BME280;76856;42.356;24.732;2024-03-02T09:17:11;98754.25;;;9.73;87.12
86204;BME280;76856;42.356;24.732;2024-03-02T09:19:38;98747.25;;;9.80;87.66
86204;BME280;76856;42.356;24.732;2024-03-02T09:22:03;98758.94;;;9.86;87.92
86204;BME280;76856;42.356;24.732;2024-03-02T09:24:31;98749.84;;;9.88;88.75
86204;BME280;76856;42.356;24.732;2024-03-02T09:26:57;98746.84;;;9.91;88.67
86204;BME280;76856;42.356;24.732;2024-03-02T09:29:22;98745.84;;;9.92;88.34
86204;BME280;76856;42.356;24.732;2024-03-02T09:31:48;98746.78;;;10.00;88.62
86204;BME280;76856;42.356;24.732;2024-03-02T09:34:14;98755.81;;;10.05;89.21
86204;BME280;76856;42.356;24.732;2024-03-02T09:36:41;98743.72;;;10.11;88.21
86204;BME280;76856;42.356;24.732;2024-03-02T09:39:10;98743.38;;;10.14;87.40
86204;BME280;76856;42.356;24.732;2024-03-02T09:41:38;98731.81;;;10.15;87.14
86204;BME280;76856;42.356;24.732;2024-03-02T09:44:05;98728.34;;;10.14;86.46
86204;BME280;76856;42.356;24.732;2024-03-02T09:46:31;98734.50;;;10.07;85.81
86204;BME280;76856;42.356;24.732;2024-03-02T09:48:59;98737.88;;;10.01;86.79
86204;BME280;76856;42.356;24.732;2024-03-02T09:51:24;98735.88;;;10.03;86.57
86204;BME280;76856;42.356;24.732;2024-03-02T09:53:50;98753.34;;;10.04;85.83
86204;BME280;76856;42.356;24.732;2024-03-02T09:56:16;98760.16;;;9.98;85.22
86204;BME280;76856;42.356;24.732;2024-03-02T09:58:41;98750.59;;;9.97;85.66
86204;BME280;76856;42.356;24.732;2024-03-02T10:01:08;98769.19;;;10.04;86.30
86204;BME280;76856;42.356;24.732;2024-03-02T10:03:37;98771.56;;;9.99;85.52
86204;BME280;76856;42.356;24.732;2024-03-02T10:08:44;98767.03;;;9.84;85.79
86204;BME280;76856;42.356;24.732;2024-03-02T10:11:10;98759.53;;;9.73;85.08
86204;BME280;76856;42.356;24.732;2024-03-02T10:13:36;98761.16;;;9.74;86.09
86204;BME280;76856;42.356;24.732;2024-03-02T10:16:12;98765.28;;;9.77;86.61
86204;BME280;76856;42.356;24.732;2024-03-02T10:18:37;98762.75;;;9.83;85.96
86204;BME280;76856;42.356;24.732;2024-03-02T10:21:13;98759.09;;;9.61;85.56
86204;BME280;76856;42.356;24.732;2024-03-02T10:23:39;98752.94;;;9.69;85.86
86204;BME280;76856;42.356;24.732;2024-03-02T10:26:17;98755.53;;;9.77;86.47
86204;BME280;76856;42.356;24.732;2024-03-02T10:28:47;98747.16;;;9.74;86.97
86204;BME280;76856;42.356;24.732;2024-03-02T10:31:25;98750.56;;;9.82;86.63
86204;BME280;76856;42.356;24.732;2024-03-02T10:33:57;98748.84;;;9.89;86.64
86204;BME280;76856;42.356;24.732;2024-03-02T10:36:23;98735.63;;;9.89;86.80
86204;BME280;76856;42.356;24.732;2024-03-02T10:38:49;98737.56;;;9.96;86.25
86204;BME280;76856;42.356;24.732;2024-03-02T10:41:18;98725.66;;;10.00;85.83
86204;BME280;76856;42.356;24.732;2024-03-02T10:43:44;98720.69;;;10.05;86.62
86204;BME280;76856;42.356;24.732;2024-03-02T10:46:12;98722.66;;;10.03;85.86
86204;BME280;76856;42.356;24.732;2024-03-02T10:48:40;98707.84;;;10.02;86.49
86204;BME280;76856;42.356;24.732;2024-03-02T10:51:06;98715.06;;;9.85;86.66
86204;BME280;76856;42.356;24.732;2024-03-02T10:53:32;98708.59;;;9.87;86.44
86204;BME280;76856;42.356;24.732;2024-03-02T10:55:58;98709.78;;;9.85;86.48
86204;BME280;76856;42.356;24.732;2024-03-02T10:58:32;98708.66;;;9.79;86.81
86204;BME280;76856;42.356;24.732;2024-03-02T11:01:02;98711.72;;;9.91;87.38
86204;BME280;76856;42.356;24.732;2024-03-02T11:03:29;98708.06;;;9.92;86.83
86204;BME280;76856;42.356;24.732;2024-03-02T11:05:58;98709.88;;;9.91;86.10
86204;BME280;76856;42.356;24.732;2024-03-02T11:08:25;98700.34;;;9.90;86.46
86204;BME280;76856;42.356;24.732;2024-03-02T11:11:05;98708.28;;;10.05;86.89
86204;BME280;76856;42.356;24.732;2024-03-02T11:13:33;98704.28;;;10.09;85.84
86204;BME280;76856;42.356;24.732;2024-03-02T11:16:18;98706.63;;;10.04;85.00
86204;BME280;76856;42.356;24.732;2024-03-02T11:18:49;98705.09;;;10.10;84.53
86204;BME280;76856;42.356;24.732;2024-03-02T11:21:16;98710.16;;;10.20;84.68
86204;BME280;76856;42.356;24.732;2024-03-02T11:23:42;98704.41;;;10.16;83.85
86204;BME280;76856;42.356;24.732;2024-03-02T11:26:18;98708.59;;;10.25;84.01
86204;BME280;76856;42.356;24.732;2024-03-02T11:28:44;98701.00;;;10.30;83.37
86204;BME280;76856;42.356;24.732;2024-03-02T11:31:10;98709.09;;;10.29;83.44
86204;BME280;76856;42.356;24.732;2024-03-02T11:33:36;98699.63;;;10.34;82.74
86204;BME280;76856;42.356;24.732;2024-03-02T11:36:01;98699.91;;;10.40;83.17
86204;BME280;76856;42.356;24.732;2024-03-02T11:38:28;98695.91;;;10.44;83.34
86204;BME280;76856;42.356;24.732;2024-03-02T11:40:54;98694.25;;;10.43;83.56
86204;BME280;76856;42.356;24.732;2024-03-02T11:43:20;98698.41;;;10.22;84.41
86204;BME280;76856;42.356;24.732;2024-03-02T11:45:46;98698.00;;;10.33;84.52
86204;BME280;76856;42.356;24.732;2024-03-02T11:48:14;98696.25;;;10.41;83.91
86204;BME280;76856;42.356;24.732;2024-03-02T11:50:47;98682.06;;;10.42;83.41
86204;BME280;76856;42.356;24.732;2024-03-02T11:53:15;98687.00;;;10.45;82.15
86204;BME280;76856;42.356;24.732;2024-03-02T11:55:41;98673.78;;;10.45;82.87
86204;BME280;76856;42.356;24.732;2024-03-02T11:58:07;98681.69;;;10.45;83.46
86204;BME280;76856;42.356;24.732;2024-03-02T12:00:33;98679.22;;;10.43;82.66
86204;BME280;76856;42.356;24.732;2024-03-02T12:03:09;98672.75;;;10.46;83.19
86204;BME280;76856;42.356;24.732;2024-03-02T12:05:37;98661.66;;;10.50;83.65
86204;BME280;76856;42.356;24.732;2024-03-02T12:08:04;98668.66;;;10.58;83.76
86204;BME280;76856;42.356;24.732;2024-03-02T12:10:32;98675.03;;;10.64;84.60
86204;BME280;76856;42.356;24.732;2024-03-02T12:13:02;98668.03;;;10.71;83.61
86204;BME280;76856;42.356;24.732;2024-03-02T12:15:30;98658.91;;;10.73;85.31
86204;BME280;76856;42.356;24.732;2024-03-02T12:17:57;98656.13;;;10.81;84.81
86204;BME280;76856;42.356;24.732;2024-03-02T12:20:24;98654.13;;;10.83;84.13
86204;BME280;76856;42.356;24.732;2024-03-02T12:22:53;98660.50;;;10.89;84.32
86204;BME280;76856;42.356;24.732;2024-03-02T12:25:24;98654.47;;;10.95;84.30
86204;BME280;76856;42.356;24.732;2024-03-02T12:27:57;98659.03;;;11.01;83.23
86204;BME280;76856;42.356;24.732;2024-03-02T12:30:24;98649.84;;;10.97;83.34
86204;BME280;76856;42.356;24.732;2024-03-02T12:32:50;98657.22;;;11.02;83.84
86204;BME280;76856;42.356;24.732;2024-03-02T12:35:17;98658.69;;;11.04;84.08
86204;BME280;76856;42.356;24.732;2024-03-02T12:37:49;98657.47;;;11.07;84.13
86204;BME280;76856;42.356;24.732;2024-03-02T12:40:17;98651.56;;;11.05;83.97
86204;BME280;76856;42.356;24.732;2024-03-02T12:42:44;98650.09;;;11.02;83.78
86204;BME280;76856;42.356;24.732;2024-03-02T12:45:11;98653.84;;;11.08;83.97
86204;BME280;76856;42.356;24.732;2024-03-02T12:47:37;98654.09;;;10.98;82.36
86204;BME280;76856;42.356;24.732;2024-03-02T12:50:04;98659.28;;;11.07;81.88
86204;BME280;76856;42.356;24.732;2024-03-02T12:52:30;98662.16;;;11.05;82.31
86204;BME280;76856;42.356;24.732;2024-03-02T12:54:59;98661.41;;;11.11;82.78
86204;BME280;76856;42.356;24.732;2024-03-02T12:57:26;98657.72;;;11.12;82.26
86204;BME280;76856;42.356;24.732;2024-03-02T13:00:05;98658.75;;;11.11;82.02